Pagrindinis puslapis
METAR-TAF:

METAR-TAF

Oro uostai :

Hangdžou, Kinija

platuma: 30-14N, ilguma: 120-10E, Aukštis: 43 m

Dabartinis oras

Ataskaita buvo paskelbta 37 minutes, ne 14:00 UTC
Ramus vėjas
Temperatūra 13°C
Drėgmė 88%
Slėgis 1025 hPa
Matomumas 10 km arba daugiau
nėra debesų žemiau 1500 m ir nėra kamuolinių lietaus debesų

METAR: ZSHC 211400Z 00000MPS CAVOK 13/11 Q1025 NOSIG

Laikas: 22:37 (14:37 UTC)

Prognozė

Ataskaita buvo paskelbta 5 valandos ir 29 minutes, ne 09:08 UTC
Prognozė galioja nuo 21 metu 12 UTC su 22 metu 12 UTC
Vėjas 6 kt iš Rytų
Matomumas: 3000 m
rūkana

TAF: ZSHC 210908Z 2112/2212 09003MPS 3000 BR NSC TX21/2206Z TN11/2121Z

Orai ataskaitas ir orų prognozės (METAR, TAF).

turimą stotys yra geltonos ir raudonos taškus žemėlapyje.

Perkelti pele per norėdami pamatyti stoties vardą.

Tada spustelėkite, norėdami matyti oro stebėjimo ir prognozės.

Norėdami pakeisti žemėlapį: spustelėkite ant žalios mygtukų su juodo kryžiaus žemyn,; žalią mygtuką su brūkšneliu, jei norite nutolinti; arba žalių rodyklių gretimoms žemėlapius.


METAR-TAF: